createdAt,value
2023-03-12T00:00:23.077Z,96364.84
2023-03-12T00:02:52.865Z,96368.91
2023-03-12T00:05:22.090Z,96373.45
2023-03-12T00:07:50.263Z,96388.80
2023-03-12T00:10:19.614Z,96399.10
2023-03-12T00:12:47.565Z,96396.59
2023-03-12T00:15:15.233Z,96390.44
2023-03-12T00:17:42.981Z,96377.40
2023-03-12T00:20:14.980Z,96376.01
2023-03-12T00:22:42.973Z,96380.89
2023-03-12T00:25:14.840Z,96385.92
2023-03-12T00:27:43.642Z,96385.19
2023-03-12T00:30:12.516Z,96397.52
2023-03-12T00:32:40.237Z,96404.13
2023-03-12T00:35:08.988Z,96404.92
2023-03-12T00:37:38.018Z,96408.34
2023-03-12T00:40:09.337Z,96402.80
2023-03-12T00:42:36.922Z,96407.02
2023-03-12T00:45:06.361Z,96402.02
2023-03-12T00:47:34.009Z,96404.98
2023-03-12T00:50:02.002Z,96403.59
2023-03-12T00:52:30.031Z,96405.52
2023-03-12T00:54:58.477Z,96405.25
2023-03-12T00:57:26.350Z,96404.00
2023-03-12T00:59:54.216Z,96407.55
2023-03-12T01:02:22.352Z,96411.90
2023-03-12T01:04:50.036Z,96407.71
2023-03-12T01:07:17.801Z,96418.16
2023-03-12T01:09:45.806Z,96416.95
2023-03-12T01:12:13.666Z,96413.84
2023-03-12T01:14:41.499Z,96420.02
2023-03-12T01:17:09.369Z,96425.67
2023-03-12T01:19:37.076Z,96422.48
2023-03-12T01:22:04.816Z,96433.98
2023-03-12T01:24:32.620Z,96444.08
2023-03-12T01:27:00.624Z,96441.44
2023-03-12T01:29:28.371Z,96449.91
2023-03-12T01:31:56.224Z,96460.32
2023-03-12T01:34:24.265Z,96460.34
2023-03-12T01:36:52.225Z,96464.09
2023-03-12T01:39:20.322Z,96476.61
2023-03-12T01:41:48.192Z,96479.54
2023-03-12T01:44:16.116Z,96484.30
2023-03-12T01:46:45.677Z,96491.76
2023-03-12T01:49:23.541Z,96499.73
2023-03-12T01:52:08.979Z,96502.94
2023-03-12T01:54:46.721Z,96500.20
2023-03-12T01:57:19.060Z,96504.43
2023-03-12T01:59:52.258Z,96509.69
2023-03-12T02:02:23.118Z,96509.94
2023-03-12T02:04:59.038Z,96517.93
2023-03-12T02:07:26.808Z,96525.39
2023-03-12T02:09:54.595Z,96524.84
2023-03-12T02:12:22.307Z,96531.27
2023-03-12T02:14:50.221Z,96535.80
2023-03-12T02:17:18.085Z,96537.38
2023-03-12T02:19:57.300Z,96540.01
2023-03-12T02:22:25.315Z,96545.02
2023-03-12T02:25:19.548Z,96551.39
2023-03-12T02:27:48.302Z,96552.70
2023-03-12T02:30:17.145Z,96551.08
2023-03-12T02:32:48.720Z,96559.05
2023-03-12T02:35:17.475Z,96565.59
2023-03-12T02:37:54.709Z,96566.44
2023-03-12T02:40:39.184Z,96565.03
2023-03-12T02:43:09.528Z,96569.92
2023-03-12T02:45:38.573Z,96575.32
2023-03-12T02:48:08.883Z,96571.94
2023-03-12T02:50:36.803Z,96580.80
2023-03-12T02:53:05.060Z,96573.36
2023-03-12T02:55:33.415Z,96571.81
2023-03-12T02:58:01.611Z,96582.54
2023-03-12T03:00:31.712Z,96590.05
2023-03-12T03:03:01.617Z,96589.58
2023-03-12T03:05:29.307Z,96594.69
2023-03-12T03:07:56.898Z,96602.48
2023-03-12T03:10:24.691Z,96599.27
2023-03-12T03:12:52.301Z,96599.53
2023-03-12T03:15:20.173Z,96593.95
2023-03-12T03:17:47.727Z,96598.25
2023-03-12T03:20:15.913Z,96606.26
2023-03-12T03:22:43.455Z,96611.10
2023-03-12T03:25:11.523Z,96612.44
2023-03-12T03:27:39.373Z,96618.27
2023-03-12T03:30:09.370Z,96627.09
2023-03-12T03:32:39.592Z,96627.62
2023-03-12T03:35:09.475Z,96638.55
2023-03-12T03:37:37.129Z,96644.46
2023-03-12T03:40:08.763Z,96647.13
2023-03-12T03:42:38.378Z,96650.03
2023-03-12T03:45:08.910Z,96649.51
2023-03-12T03:47:36.912Z,96652.95
2023-03-12T03:50:06.642Z,96658.77
2023-03-12T03:52:34.584Z,96663.30
2023-03-12T03:55:02.225Z,96665.97
2023-03-12T03:57:31.466Z,96664.34
2023-03-12T04:00:03.063Z,96671.78
2023-03-12T04:02:29.949Z,96671.53
2023-03-12T04:04:58.640Z,96673.11
2023-03-12T04:07:28.190Z,96685.94
2023-03-12T04:09:57.736Z,96688.91
2023-03-12T04:12:27.701Z,96694.78
2023-03-12T04:14:55.969Z,96703.02
2023-03-12T04:17:23.681Z,96705.69
2023-03-12T04:19:51.519Z,96707.81
2023-03-12T04:22:19.402Z,96715.56
2023-03-12T04:24:47.065Z,96718.23
2023-03-12T04:27:15.484Z,96721.19
2023-03-12T04:29:44.780Z,96720.94
2023-03-12T04:32:12.732Z,96725.48
2023-03-12T04:34:40.553Z,96735.09
2023-03-12T04:37:11.212Z,96738.55
2023-03-12T04:39:39.555Z,96742.26
2023-03-12T04:42:08.445Z,96754.04
2023-03-12T04:44:37.684Z,96758.86
2023-03-12T04:47:06.266Z,96761.52
2023-03-12T04:49:34.621Z,96759.66
2023-03-12T04:52:02.614Z,96767.11
2023-03-12T04:54:31.419Z,96768.44
2023-03-12T04:56:59.408Z,96768.97
2023-03-12T04:59:27.832Z,96778.27
2023-03-12T05:01:55.780Z,96791.58
2023-03-12T05:04:25.378Z,96789.70
2023-03-12T05:06:53.353Z,96791.83
2023-03-12T05:09:20.888Z,96797.16
2023-03-12T05:11:48.893Z,96808.10
2023-03-12T05:14:18.054Z,96815.84
2023-03-12T05:16:46.353Z,96813.47
2023-03-12T05:19:14.177Z,96817.21
2023-03-12T05:21:43.411Z,96817.50
2023-03-12T05:24:11.651Z,96817.24
2023-03-12T05:26:39.756Z,96818.32
2023-03-12T05:29:11.923Z,96827.10
2023-03-12T05:31:39.864Z,96826.56
2023-03-12T05:34:08.471Z,96834.55
2023-03-12T05:36:38.361Z,96834.02
2023-03-12T05:39:07.198Z,96836.14
2023-03-12T05:41:35.219Z,96834.81
2023-03-12T05:44:09.351Z,96840.95
2023-03-12T05:46:37.145Z,96852.66
2023-03-12T05:49:05.723Z,96857.16
2023-03-12T05:51:33.627Z,96865.69
2023-03-12T05:54:02.212Z,96863.81
2023-03-12T05:56:29.908Z,96872.62
2023-03-12T05:58:57.625Z,96880.34
2023-03-12T06:01:28.943Z,96884.05
2023-03-12T06:03:58.924Z,96884.53
2023-03-12T06:06:26.979Z,96900.48
2023-03-12T06:08:55.333Z,96901.27
2023-03-12T06:11:23.038Z,96907.94
2023-03-12T06:13:51.133Z,96916.21
2023-03-12T06:16:23.300Z,96920.48
2023-03-12T06:18:56.346Z,96922.64
2023-03-12T06:21:28.074Z,96938.06
2023-03-12T06:23:57.044Z,96939.37
2023-03-12T06:26:33.998Z,96946.85
2023-03-12T06:29:02.021Z,96946.80
2023-03-12T06:31:29.707Z,96943.84
2023-03-12T06:33:57.687Z,96939.56
2023-03-12T06:36:25.313Z,96940.35
2023-03-12T06:38:56.583Z,96948.09
2023-03-12T06:41:23.066Z,96958.75
2023-03-12T06:43:51.072Z,96960.88
2023-03-12T06:46:25.254Z,96965.92
2023-03-12T06:48:52.958Z,96964.05
2023-03-12T06:51:20.859Z,96974.14
2023-03-12T06:53:48.472Z,96977.61
2023-03-12T06:56:16.833Z,96989.09
2023-03-12T06:58:44.632Z,96990.68
2023-03-12T07:01:12.451Z,96989.63
2023-03-12T07:03:40.548Z,96994.94
2023-03-12T07:06:17.443Z,96998.64
2023-03-12T07:08:46.181Z,97010.90
2023-03-12T07:11:14.319Z,97012.48
2023-03-12T07:13:42.342Z,97020.48
2023-03-12T07:16:10.758Z,97031.44
2023-03-12T07:18:38.664Z,97025.53
2023-03-12T07:21:07.040Z,97033.50
2023-03-12T07:23:34.742Z,97046.27
2023-03-12T07:26:05.062Z,97046.01
2023-03-12T07:28:32.741Z,97049.47
2023-03-12T07:31:03.973Z,97051.78
2023-03-12T07:33:32.087Z,97048.49
2023-03-12T07:36:00.951Z,97053.66
2023-03-12T07:38:28.811Z,97049.00
2023-03-12T07:40:58.350Z,97053.52
2023-03-12T07:43:26.736Z,97060.67
2023-03-12T07:45:55.382Z,97066.41
2023-03-12T07:48:23.078Z,97067.41
2023-03-12T07:50:50.994Z,97066.27
2023-03-12T07:53:19.369Z,97062.40
2023-03-12T07:55:48.231Z,97063.80
2023-03-12T07:58:17.170Z,97065.78
2023-03-12T08:00:45.287Z,97074.27
2023-03-12T08:03:13.384Z,97082.60
2023-03-12T08:05:41.694Z,97093.50
2023-03-12T08:08:09.786Z,97101.08
2023-03-12T08:10:37.467Z,97104.78
2023-03-12T08:13:05.257Z,97103.56
2023-03-12T08:15:33.162Z,97108.30
2023-03-12T08:18:01.120Z,97105.94
2023-03-12T08:20:31.706Z,97121.74
2023-03-12T08:22:59.637Z,97118.33
2023-03-12T08:25:27.235Z,97123.94
2023-03-12T08:27:55.094Z,97124.22
2023-03-12T08:30:22.959Z,97135.20
2023-03-12T08:32:50.592Z,97138.43
2023-03-12T08:35:18.550Z,97144.22
2023-03-12T08:37:46.101Z,97136.56
2023-03-12T08:40:14.489Z,97140.69
2023-03-12T08:42:45.196Z,97135.70
2023-03-12T08:45:15.234Z,97135.67
2023-03-12T08:47:44.032Z,97141.26
2023-03-12T08:50:16.211Z,97145.75
2023-03-12T08:52:44.476Z,97155.67
2023-03-12T08:55:12.556Z,97154.80
2023-03-12T08:57:40.628Z,97162.05
2023-03-12T09:00:12.105Z,97165.77
2023-03-12T09:02:39.857Z,97164.36
2023-03-12T09:05:08.072Z,97169.33
2023-03-12T09:07:36.001Z,97161.20
2023-03-12T09:10:04.984Z,97171.52
2023-03-12T09:12:32.870Z,97180.18
2023-03-12T09:15:03.804Z,97178.11
2023-03-12T09:17:29.975Z,97179.33
2023-03-12T09:19:57.533Z,97178.67
2023-03-12T09:22:25.398Z,97185.05
2023-03-12T09:24:53.008Z,97196.08
2023-03-12T09:27:20.532Z,97198.27
2023-03-12T09:29:59.518Z,97198.76
2023-03-12T09:32:18.423Z,97201.73
2023-03-12T09:34:46.078Z,97204.84
2023-03-12T09:37:13.653Z,97206.64
2023-03-12T09:39:41.341Z,97211.69
2023-03-12T09:42:14.371Z,97204.58
2023-03-12T09:44:44.874Z,97218.74
2023-03-12T09:47:34.835Z,97210.53
2023-03-12T09:50:22.929Z,97212.02
2023-03-12T09:53:32.430Z,97225.36
2023-03-12T09:56:05.877Z,97222.29
2023-03-12T09:58:37.105Z,97229.27
2023-03-12T10:01:16.169Z,97232.75
2023-03-12T10:04:19.678Z,97232.94
2023-03-12T10:07:17.346Z,97231.28
2023-03-12T10:10:06.809Z,97237.03
2023-03-12T10:12:47.475Z,97239.03
2023-03-12T10:15:31.978Z,97244.03
2023-03-12T10:18:23.452Z,97241.80
2023-03-12T10:21:24.203Z,97243.24
2023-03-12T10:24:25.110Z,97243.66
2023-03-12T10:26:55.448Z,97250.35
2023-03-12T10:29:28.265Z,97243.67
2023-03-12T10:32:04.112Z,97247.89
2023-03-12T10:34:58.106Z,97243.58
2023-03-12T10:37:49.029Z,97238.39
2023-03-12T10:40:23.777Z,97241.43
2023-03-12T10:42:51.693Z,97242.47
2023-03-12T10:45:41.603Z,97243.45
2023-03-12T10:48:14.294Z,97243.47
2023-03-12T10:50:41.863Z,97247.48
2023-03-12T10:53:30.222Z,97245.48
2023-03-12T10:56:10.980Z,97249.36
2023-03-12T10:58:48.806Z,97244.20
2023-03-12T11:01:23.865Z,97248.69
2023-03-12T11:03:54.543Z,97245.58
2023-03-12T11:06:27.193Z,97257.45
2023-03-12T11:09:16.657Z,97252.03
2023-03-12T11:11:38.877Z,97250.71
2023-03-12T11:14:12.742Z,97247.55
2023-03-12T11:16:40.608Z,97243.91
2023-03-12T11:19:15.451Z,97244.13
2023-03-12T11:21:57.185Z,97246.25
2023-03-12T11:24:24.806Z,97243.13
2023-03-12T11:27:09.177Z,97238.34
2023-03-12T11:29:42.952Z,97238.73
2023-03-12T11:32:33.436Z,97235.80
2023-03-12T11:35:01.980Z,97238.78
2023-03-12T11:37:57.700Z,97248.63
2023-03-12T11:40:48.626Z,97251.83
2023-03-12T11:43:41.689Z,97252.47
2023-03-12T11:46:08.856Z,97245.34
2023-03-12T11:48:53.841Z,97247.03
2023-03-12T11:51:48.186Z,97247.16
2023-03-12T11:54:45.250Z,97253.77
2023-03-12T11:57:42.176Z,97250.13
2023-03-12T12:00:15.563Z,97251.79
2023-03-12T12:03:00.356Z,97245.22
2023-03-12T12:06:06.763Z,97244.72
2023-03-12T12:09:18.547Z,97249.30
2023-03-12T12:12:15.567Z,97240.86
2023-03-12T12:15:09.523Z,97242.08
2023-03-12T12:18:18.665Z,97248.57
2023-03-12T12:21:01.158Z,97245.78
2023-03-12T12:24:00.134Z,97240.78
2023-03-12T12:26:52.780Z,97242.72
2023-03-12T12:29:48.822Z,97244.16
2023-03-12T12:32:21.934Z,97245.90
2023-03-12T12:35:07.026Z,97241.97
2023-03-12T12:37:52.231Z,97246.33
2023-03-12T12:40:30.721Z,97248.80
2023-03-12T12:43:36.703Z,97253.75
2023-03-12T12:46:09.335Z,97252.37
2023-03-12T12:49:01.345Z,97244.91
2023-03-12T12:51:36.711Z,97249.81
2023-03-12T12:54:25.102Z,97244.91
2023-03-12T12:57:06.756Z,97256.91
2023-03-12T12:59:51.890Z,97253.16
2023-03-12T13:02:23.293Z,97261.84
2023-03-12T13:04:50.995Z,97262.06
2023-03-12T13:07:25.848Z,97251.81
2023-03-12T13:09:58.321Z,97261.34
2023-03-12T13:12:42.990Z,97255.42
2023-03-12T13:15:33.822Z,97257.79
2023-03-12T13:18:08.658Z,97256.44
2023-03-12T13:20:53.232Z,97253.73
2023-03-12T13:24:02.467Z,97264.78
2023-03-12T13:26:50.108Z,97260.63
2023-03-12T13:29:32.192Z,97257.30
2023-03-12T13:31:59.679Z,97258.06
2023-03-12T13:34:31.865Z,97253.72
2023-03-12T13:37:04.722Z,97256.38
2023-03-12T13:39:35.812Z,97262.61
2023-03-12T13:42:44.396Z,97263.22
2023-03-12T13:45:26.422Z,97265.64
2023-03-12T13:47:59.017Z,97268.66
2023-03-12T13:50:28.827Z,97271.67
2023-03-12T13:53:06.867Z,97272.04
2023-03-12T13:55:36.773Z,97276.41
2023-03-12T13:58:19.597Z,97276.94
2023-03-12T14:00:58.288Z,97276.30
2023-03-12T14:03:38.663Z,97276.05
2023-03-12T14:06:13.645Z,97281.98
2023-03-12T14:09:04.782Z,97288.06
2023-03-12T14:11:57.765Z,97288.88
2023-03-12T14:14:53.917Z,97286.63
2023-03-12T14:17:26.844Z,97289.95
2023-03-12T14:20:16.991Z,97289.59
2023-03-12T14:22:52.036Z,97290.48
2023-03-12T14:25:27.787Z,97295.36
2023-03-12T14:27:55.881Z,97304.56
2023-03-12T14:30:45.255Z,97308.82
2023-03-12T14:33:15.749Z,97306.70
2023-03-12T14:36:14.481Z,97309.73
2023-03-12T14:38:45.736Z,97309.41
2023-03-12T14:41:21.037Z,97315.08
2023-03-12T14:43:52.666Z,97315.21
2023-03-12T14:46:23.936Z,97327.86
2023-03-12T14:48:57.349Z,97320.72
2023-03-12T14:51:27.729Z,97327.44
2023-03-12T14:53:56.979Z,97329.73
2023-03-12T14:56:32.830Z,97336.24
2023-03-12T14:59:21.603Z,97338.61
2023-03-12T15:01:49.774Z,97347.02
2023-03-12T15:04:22.133Z,97348.64
2023-03-12T15:06:54.201Z,97341.20
2023-03-12T15:09:26.173Z,97347.53
2023-03-12T15:12:06.973Z,97344.48
2023-03-12T15:14:38.891Z,97349.92
2023-03-12T15:17:07.481Z,97346.08
2023-03-12T15:19:39.760Z,97356.63
2023-03-12T15:22:15.009Z,97354.66
2023-03-12T15:24:43.533Z,97349.69
2023-03-12T15:27:28.762Z,97348.28
2023-03-12T15:29:59.131Z,97354.52
2023-03-12T15:32:29.976Z,97357.08
2023-03-12T15:34:59.356Z,97357.73
2023-03-12T15:37:34.279Z,97362.52
2023-03-12T15:40:06.142Z,97365.31
2023-03-12T15:42:41.331Z,97369.31
2023-03-12T15:45:19.766Z,97372.56
2023-03-12T15:47:48.467Z,97371.35
2023-03-12T15:50:38.814Z,97372.94
2023-03-12T15:53:14.479Z,97372.78
2023-03-12T15:55:42.987Z,97378.64
2023-03-12T15:58:32.552Z,97383.30
2023-03-12T16:01:14.280Z,97386.33
2023-03-12T16:03:44.948Z,97399.93
2023-03-12T16:06:28.539Z,97390.79
2023-03-12T16:08:59.915Z,97395.34
2023-03-12T16:11:31.967Z,97403.43
2023-03-12T16:14:19.019Z,97402.03
2023-03-12T16:16:47.557Z,97408.90
2023-03-12T16:19:19.361Z,97408.17
2023-03-12T16:21:48.008Z,97409.86
2023-03-12T16:24:16.240Z,97419.70
2023-03-12T16:26:54.420Z,97421.58
2023-03-12T16:29:26.071Z,97426.66
2023-03-12T16:31:55.721Z,97432.20
2023-03-12T16:34:23.803Z,97435.59
2023-03-12T16:36:51.898Z,97444.62
2023-03-12T16:39:20.091Z,97447.20
2023-03-12T16:41:47.840Z,97453.53
2023-03-12T16:44:21.316Z,97452.24
2023-03-12T16:46:49.175Z,97457.13
2023-03-12T16:49:19.596Z,97462.98
2023-03-12T16:51:47.512Z,97465.09
2023-03-12T16:54:15.308Z,97471.53
2023-03-12T16:56:47.693Z,97475.27
2023-03-12T16:59:25.561Z,97477.95
2023-03-12T17:01:53.727Z,97477.42
2023-03-12T17:04:21.433Z,97486.36
2023-03-12T17:06:49.205Z,97486.14
2023-03-12T17:09:18.429Z,97490.48
2023-03-12T17:11:49.855Z,97508.54
2023-03-12T17:14:21.677Z,97507.52
2023-03-12T17:16:50.453Z,97504.31
2023-03-12T17:19:18.343Z,97505.66
2023-03-12T17:21:47.870Z,97512.89
2023-03-12T17:24:16.442Z,97511.87
2023-03-12T17:26:45.910Z,97513.25
2023-03-12T17:29:13.671Z,97515.14
2023-03-12T17:31:41.431Z,97519.47
2023-03-12T17:34:09.050Z,97524.06
2023-03-12T17:36:37.793Z,97530.77
2023-03-12T17:39:05.766Z,97537.55
2023-03-12T17:41:33.856Z,97540.86
2023-03-12T17:44:03.155Z,97550.04
2023-03-12T17:46:31.566Z,97546.14
2023-03-12T17:48:59.203Z,97555.13
2023-03-12T17:51:26.897Z,97561.89
2023-03-12T17:53:54.938Z,97565.75
2023-03-12T17:56:23.774Z,97566.66
2023-03-12T17:58:51.474Z,97575.06
2023-03-12T18:01:19.541Z,97580.27
2023-03-12T18:03:50.362Z,97581.41
2023-03-12T18:06:19.897Z,97592.73
2023-03-12T18:08:47.874Z,97590.39
2023-03-12T18:11:15.452Z,97590.20
2023-03-12T18:13:43.040Z,97593.18
2023-03-12T18:16:10.754Z,97602.88
2023-03-12T18:18:38.568Z,97601.02
2023-03-12T18:21:06.609Z,97601.59
2023-03-12T18:23:34.337Z,97608.00
2023-03-12T18:26:03.375Z,97609.63
2023-03-12T18:28:33.785Z,97612.33
2023-03-12T18:31:01.406Z,97619.27
2023-03-12T18:33:30.339Z,97613.41
2023-03-12T18:35:58.193Z,97612.33
2023-03-12T18:38:26.185Z,97624.91
2023-03-12T18:41:08.158Z,97628.64
2023-03-12T18:43:36.588Z,97631.59
2023-03-12T18:46:05.535Z,97639.14
2023-03-12T18:48:32.981Z,97642.09
2023-03-12T18:51:00.968Z,97646.66
2023-03-12T18:53:33.359Z,97646.11
2023-03-12T18:56:02.657Z,97659.52
2023-03-12T18:58:30.249Z,97666.20
2023-03-12T19:00:58.835Z,97672.62
2023-03-12T19:03:26.761Z,97676.64
2023-03-12T19:06:07.874Z,97690.01
2023-03-12T19:08:36.962Z,97690.00
2023-03-12T19:11:12.045Z,97693.23
2023-03-12T19:13:40.122Z,97695.63
2023-03-12T19:16:10.641Z,97692.44
2023-03-12T19:18:39.529Z,97696.98
2023-03-12T19:21:08.100Z,97698.33
2023-03-12T19:23:36.090Z,97703.66
2023-03-12T19:26:04.652Z,97702.58
2023-03-12T19:28:32.224Z,97701.25
2023-03-12T19:31:06.895Z,97702.61
2023-03-12T19:33:36.152Z,97711.13
2023-03-12T19:36:04.892Z,97720.51
2023-03-12T19:38:33.208Z,97710.88
2023-03-12T19:41:01.107Z,97722.35
2023-03-12T19:43:29.287Z,97727.45
2023-03-12T19:45:57.135Z,97733.33
2023-03-12T19:48:24.960Z,97738.11
2023-03-12T19:50:54.371Z,97736.78
2023-03-12T19:53:22.578Z,97742.90
2023-03-12T19:55:50.617Z,97745.58
2023-03-12T19:58:18.647Z,97745.55
2023-03-12T20:00:48.979Z,97746.88
2023-03-12T20:03:16.740Z,97748.73
2023-03-12T20:05:45.058Z,97752.99
2023-03-12T20:08:13.324Z,97754.86
2023-03-12T20:10:41.068Z,97760.47
2023-03-12T20:13:10.625Z,97762.05
2023-03-12T20:15:39.721Z,97763.66
2023-03-12T20:18:07.276Z,97767.11
2023-03-12T20:20:34.975Z,97766.85
2023-03-12T20:23:03.996Z,97775.10
2023-03-12T20:25:32.986Z,97778.03
2023-03-12T20:28:00.773Z,97763.84
2023-03-12T20:30:28.655Z,97769.95
2023-03-12T20:32:56.174Z,97766.73
2023-03-12T20:35:23.915Z,97775.25
2023-03-12T20:37:51.751Z,97773.68
2023-03-12T20:40:19.982Z,97776.59
2023-03-12T20:42:47.542Z,97766.72
2023-03-12T20:45:15.372Z,97765.63
2023-03-12T20:47:43.062Z,97760.80
2023-03-12T20:50:11.758Z,97760.00
2023-03-12T20:52:39.711Z,97767.20
2023-03-12T20:55:08.136Z,97765.34
2023-03-12T20:57:36.020Z,97759.47
2023-03-12T21:00:05.172Z,97770.17
2023-03-12T21:02:32.816Z,97772.84
2023-03-12T21:05:00.403Z,97788.84
2023-03-12T21:07:28.177Z,97784.02
2023-03-12T21:09:56.039Z,97777.06
2023-03-12T21:12:23.704Z,97778.13
2023-03-12T21:14:51.333Z,97773.03
2023-03-12T21:17:18.940Z,97778.88
2023-03-12T21:19:46.795Z,97783.95
2023-03-12T21:22:14.514Z,97786.62
2023-03-12T21:24:42.107Z,97786.88
2023-03-12T21:27:10.795Z,97785.55
2023-03-12T21:29:38.451Z,97784.48
2023-03-12T21:32:07.465Z,97781.55
2023-03-12T21:34:36.242Z,97783.14
2023-03-12T21:37:05.263Z,97787.95
2023-03-12T21:39:34.118Z,97796.48
2023-03-12T21:42:01.980Z,97793.82
2023-03-12T21:44:29.564Z,97791.95
2023-03-12T21:46:58.297Z,97791.13
2023-03-12T21:49:26.254Z,97794.09
2023-03-12T21:51:53.965Z,97797.82
2023-03-12T21:54:21.441Z,97803.19
2023-03-12T21:56:49.495Z,97802.39
2023-03-12T21:59:17.029Z,97809.33
2023-03-12T22:01:44.432Z,97807.73
2023-03-12T22:04:12.505Z,97800.75
2023-03-12T22:06:42.002Z,97809.56
2023-03-12T22:09:09.444Z,97806.87
2023-03-12T22:11:37.320Z,97807.41
2023-03-12T22:14:04.822Z,97813.84
2023-03-12T22:16:32.585Z,97812.27
2023-03-12T22:19:00.518Z,97815.52
2023-03-12T22:21:28.199Z,97827.81
2023-03-12T22:23:56.801Z,97819.03
2023-03-12T22:26:27.544Z,97822.21
2023-03-12T22:28:57.426Z,97823.79
2023-03-12T22:31:28.610Z,97812.52
2023-03-12T22:33:57.000Z,97822.67
2023-03-12T22:36:24.950Z,97824.24
2023-03-12T22:38:52.813Z,97829.02
2023-03-12T22:41:29.166Z,97831.69
2023-03-12T22:44:04.345Z,97830.06
2023-03-12T22:46:32.414Z,97837.23
2023-03-12T22:49:02.569Z,97834.56
2023-03-12T22:51:33.083Z,97835.86
2023-03-12T22:54:02.708Z,97836.10
2023-03-12T22:56:30.398Z,97841.41
2023-03-12T22:58:58.570Z,97845.64
2023-03-12T23:01:26.427Z,97849.87
2023-03-12T23:03:54.366Z,97858.38
2023-03-12T23:06:26.125Z,97860.73
2023-03-12T23:08:54.760Z,97858.33
2023-03-12T23:11:25.030Z,97862.56
2023-03-12T23:13:53.528Z,97863.63
2023-03-12T23:16:24.547Z,97866.83
2023-03-12T23:18:52.474Z,97868.43
2023-03-12T23:21:22.950Z,97859.86
2023-03-12T23:23:51.853Z,97856.89
2023-03-12T23:26:23.683Z,97843.02
2023-03-12T23:28:52.901Z,97838.45
2023-03-12T23:31:21.079Z,97848.81
2023-03-12T23:33:48.799Z,97854.11
2023-03-12T23:36:20.571Z,97854.59
2023-03-12T23:38:49.850Z,97851.36
2023-03-12T23:41:24.199Z,97858.02
2023-03-12T23:43:52.815Z,97859.13
2023-03-12T23:46:21.103Z,97855.62
2023-03-12T23:48:49.553Z,97858.02
2023-03-12T23:51:20.805Z,97854.82
2023-03-12T23:53:52.293Z,97852.96
2023-03-12T23:56:23.523Z,97863.70
2023-03-12T23:58:51.550Z,97865.61
